Time;durP1;ratioP1;P1;durP2;ratioP2;P2;SDS_P1;SDS_P2;PMS_P1;PMS_P2;Temp;Humidity;BMP_temperature;BMP_pressure;BME280_temperature;BME280_humidity;BME280_pressure;Samples;Min_cycle;Max_cycle;Signal;HPM_P1;HPM_P2
2022/08/26 00:00:29;;;;;;;26.23;12.88;;;;;;;;;;5048435;28;20079;-80
2022/08/26 00:02:56;;;;;;;25.10;12.70;;;;;;;;;;5031185;28;20032;-79
2022/08/26 00:05:22;;;;;;;22.58;12.77;;;;;;;;;;5048588;28;20025;-80
2022/08/26 00:07:48;;;;;;;30.67;13.05;;;;;;;;;;5032943;28;20029;-79
2022/08/26 00:10:14;;;;;;;28.17;13.38;;;;;;;;;;5048423;28;20429;-77
2022/08/26 00:12:39;;;;;;;21.90;13.20;;;;;;;;;;5031746;28;20042;-78
2022/08/26 00:15:12;;;;;;;21.98;12.85;;;;;;;;;;5047332;28;20064;-78
2022/08/26 00:17:42;;;;;;;29.58;12.23;;;;;;;;;;5032461;28;20029;-79
2022/08/26 00:20:09;;;;;;;24.05;12.43;;;;;;;;;;5032113;28;20057;-79
2022/08/26 00:22:37;;;;;;;27.58;13.15;;;;;;;;;;5032431;28;20485;-79
2022/08/26 00:25:05;;;;;;;27.88;12.80;;;;;;;;;;5015269;28;20021;-79
2022/08/26 00:27:32;;;;;;;19.38;12.60;;;;;;;;;;5031060;28;20477;-78
2022/08/26 00:29:59;;;;;;;24.10;13.25;;;;;;;;;;5031740;28;20033;-79
2022/08/26 00:32:25;;;;;;;23.27;13.13;;;;;;;;;;5032083;28;20053;-79
2022/08/26 00:34:50;;;;;;;26.85;12.80;;;;;;;;;;5031388;28;20080;-78
2022/08/26 00:37:16;;;;;;;22.13;13.15;;;;;;;;;;5046913;28;20392;-80
2022/08/26 00:39:41;;;;;;;20.77;12.68;;;;;;;;;;5047226;28;20057;-79
2022/08/26 00:42:07;;;;;;;28.05;13.02;;;;;;;;;;5031709;28;20104;-78
2022/08/26 00:44:32;;;;;;;23.88;14.75;;;;;;;;;;5047216;28;20030;-78
2022/08/26 00:47:01;;;;;;;19.95;13.27;;;;;;;;;;5030261;28;20025;-78
2022/08/26 00:49:37;;;;;;;18.38;13.10;;;;;;;;;;5047223;28;20116;-78
2022/08/26 00:52:05;;;;;;;25.88;12.50;;;;;;;;;;5046920;28;20029;-79
2022/08/26 00:54:35;;;;;;;25.77;13.05;;;;;;;;;;5046997;28;20214;-78
2022/08/26 00:57:06;;;;;;;26.55;12.70;;;;;;;;;;5031392;28;20076;-80
2022/08/26 00:59:32;;;;;;;25.52;12.73;;;;;;;;;;5047478;28;20064;-78
2022/08/26 01:01:57;;;;;;;29.35;13.48;;;;;;;;;;5032289;28;20061;-79
2022/08/26 01:04:27;;;;;;;37.88;29.60;;;;;;;;;;5031301;28;20018;-78
2022/08/26 01:06:53;;;;;;;20.70;13.85;;;;;;;;;;5031490;28;20572;-79
2022/08/26 01:09:20;;;;;;;26.27;13.60;;;;;;;;;;5047240;28;20029;-78
2022/08/26 01:11:48;;;;;;;26.40;14.02;;;;;;;;;;5031943;28;20025;-79
2022/08/26 01:14:15;;;;;;;30.92;14.10;;;;;;;;;;5029935;28;20156;-79
2022/08/26 01:16:41;;;;;;;23.95;11.93;;;;;;;;;;5031285;28;20030;-78
2022/08/26 01:19:26;;;;;;;21.65;13.18;;;;;;;;;;5030835;28;20159;-79
2022/08/26 01:22:04;;;;;;;26.90;13.48;;;;;;;;;;5031440;28;20025;-78
2022/08/26 01:24:30;;;;;;;20.33;11.88;;;;;;;;;;5029966;28;20036;-79
2022/08/26 01:27:03;;;;;;;28.17;12.77;;;;;;;;;;5045997;28;20076;-79
2022/08/26 01:29:31;;;;;;;21.90;12.68;;;;;;;;;;5046448;28;20033;-78
2022/08/26 01:31:57;;;;;;;21.55;12.75;;;;;;;;;;5030962;28;20083;-79
2022/08/26 01:34:36;;;;;;;24.50;13.38;;;;;;;;;;5046330;28;20108;-80
2022/08/26 01:37:18;;;;;;;19.75;12.77;;;;;;;;;;5046638;28;20127;-78
2022/08/26 01:39:47;;;;;;;19.10;12.07;;;;;;;;;;5031005;28;20052;-78
2022/08/26 01:42:15;;;;;;;23.90;13.27;;;;;;;;;;5047091;28;20017;-79
2022/08/26 01:44:59;;;;;;;24.65;12.02;;;;;;;;;;5031880;28;20040;-78
2022/08/26 01:47:28;;;;;;;21.85;12.70;;;;;;;;;;5030820;28;20014;-78
2022/08/26 01:49:55;;;;;;;23.13;13.05;;;;;;;;;;5031266;28;20026;-79
2022/08/26 01:52:25;;;;;;;28.92;12.95;;;;;;;;;;5031343;28;20071;-79
2022/08/26 01:54:52;;;;;;;20.88;11.88;;;;;;;;;;5030124;28;20025;-78
2022/08/26 01:57:19;;;;;;;25.45;13.45;;;;;;;;;;5045379;28;20057;-79
2022/08/26 01:59:47;;;;;;;21.90;14.45;;;;;;;;;;5031444;28;20226;-80
2022/08/26 02:02:12;;;;;;;22.40;13.70;;;;;;;;;;5034640;28;20049;-79
2022/08/26 02:04:46;;;;;;;19.67;12.45;;;;;;;;;;5034894;28;20127;-78
2022/08/26 02:07:14;;;;;;;24.50;12.65;;;;;;;;;;5034670;28;20049;-79
2022/08/26 02:09:41;;;;;;;23.40;12.40;;;;;;;;;;5034688;28;20034;-78
2022/08/26 02:12:08;;;;;;;26.27;13.18;;;;;;;;;;5034718;28;20497;-78
2022/08/26 02:14:37;;;;;;;30.42;13.93;;;;;;;;;;5050175;28;20029;-78
2022/08/26 02:17:05;;;;;;;19.08;12.77;;;;;;;;;;5034767;28;20103;-80
2022/08/26 02:19:34;;;;;;;23.17;13.68;;;;;;;;;;5034892;28;20028;-79
2022/08/26 02:22:04;;;;;;;23.35;13.27;;;;;;;;;;5033487;28;20052;-79
2022/08/26 02:24:46;;;;;;;27.60;14.10;;;;;;;;;;5035233;28;20033;-79
2022/08/26 02:27:13;;;;;;;28.27;14.23;;;;;;;;;;5033854;28;20079;-78
2022/08/26 02:29:43;;;;;;;20.95;12.60;;;;;;;;;;5034641;28;20083;-79
2022/08/26 02:32:11;;;;;;;25.08;13.88;;;;;;;;;;5049902;28;20029;-78
2022/08/26 02:34:36;;;;;;;20.70;13.13;;;;;;;;;;5049999;28;20029;-80
2022/08/26 02:37:06;;;;;;;26.85;13.55;;;;;;;;;;5035310;28;20063;-78
2022/08/26 02:39:33;;;;;;;22.55;13.80;;;;;;;;;;5033768;28;20059;-78
2022/08/26 02:41:58;;;;;;;23.08;12.07;;;;;;;;;;5035042;28;20033;-79
2022/08/26 02:44:25;;;;;;;19.02;12.30;;;;;;;;;;5049925;28;20021;-79
2022/08/26 02:46:51;;;;;;;29.00;13.88;;;;;;;;;;5049151;28;20469;-78
2022/08/26 02:49:18;;;;;;;23.92;13.65;;;;;;;;;;5049735;28;20044;-78
2022/08/26 02:51:44;;;;;;;22.85;13.55;;;;;;;;;;5034162;28;20044;-78
2022/08/26 02:54:11;;;;;;;23.55;13.30;;;;;;;;;;5049735;28;20473;-79
2022/08/26 02:56:38;;;;;;;24.98;14.10;;;;;;;;;;5049713;28;20029;-78
2022/08/26 02:59:04;;;;;;;26.08;13.45;;;;;;;;;;5034232;28;20025;-78
2022/08/26 03:01:32;;;;;;;21.67;13.52;;;;;;;;;;5048990;28;20040;-78
2022/08/26 03:03:59;;;;;;;23.80;13.65;;;;;;;;;;5033708;28;20407;-79
2022/08/26 03:06:25;;;;;;;32.55;14.50;;;;;;;;;;5049644;28;20527;-79
2022/08/26 03:08:51;;;;;;;28.48;13.85;;;;;;;;;;5049105;28;20025;-78
2022/08/26 03:11:18;;;;;;;24.98;14.15;;;;;;;;;;5032953;28;20072;-79
2022/08/26 03:13:45;;;;;;;23.48;14.18;;;;;;;;;;5049772;28;20477;-79
2022/08/26 03:16:12;;;;;;;39.83;28.92;;;;;;;;;;5034809;28;20029;-78
2022/08/26 03:18:39;;;;;;;25.90;15.38;;;;;;;;;;5033931;28;20537;-79
2022/08/26 03:21:07;;;;;;;35.88;14.40;;;;;;;;;;5034522;28;20029;-79
2022/08/26 03:23:34;;;;;;;33.78;14.18;;;;;;;;;;5050419;28;20049;-79
2022/08/26 03:26:00;;;;;;;32.90;14.07;;;;;;;;;;5032956;28;20105;-79
2022/08/26 03:28:25;;;;;;;26.13;14.05;;;;;;;;;;5050152;28;20037;-79
2022/08/26 03:30:52;;;;;;;34.83;14.27;;;;;;;;;;5032769;28;20474;-78
2022/08/26 03:33:18;;;;;;;21.60;12.82;;;;;;;;;;5033780;28;20405;-80
2022/08/26 03:35:46;;;;;;;25.85;13.32;;;;;;;;;;5032246;28;20485;-78
2022/08/26 03:38:13;;;;;;;28.83;15.88;;;;;;;;;;5033260;28;20104;-79
2022/08/26 03:40:41;;;;;;;24.55;14.95;;;;;;;;;;5032095;28;20022;-79
2022/08/26 03:43:08;;;;;;;30.05;16.75;;;;;;;;;;5031818;28;20038;-80
2022/08/26 03:45:34;;;;;;;28.63;14.65;;;;;;;;;;5033061;28;20553;-79
2022/08/26 03:48:02;;;;;;;24.27;14.95;;;;;;;;;;5035019;28;20110;-78
2022/08/26 03:50:28;;;;;;;22.92;13.57;;;;;;;;;;5034533;28;20442;-78
2022/08/26 03:52:54;;;;;;;20.60;14.35;;;;;;;;;;5034057;28;20101;-79
2022/08/26 03:55:24;;;;;;;21.90;14.40;;;;;;;;;;5032913;28;20541;-78
2022/08/26 03:57:50;;;;;;;37.33;15.73;;;;;;;;;;5032423;28;20025;-78
2022/08/26 04:00:16;;;;;;;25.10;14.77;;;;;;;;;;5033126;28;20040;-80
2022/08/26 04:02:44;;;;;;;20.38;14.20;;;;;;;;;;5034126;28;20030;-78
2022/08/26 04:05:12;;;;;;;28.08;14.48;;;;;;;;;;5032893;28;20034;-78
2022/08/26 04:07:38;;;;;;;25.17;14.02;;;;;;;;;;5031425;28;20035;-78
2022/08/26 04:10:04;;;;;;;27.27;14.68;;;;;;;;;;5032737;28;20033;-78
2022/08/26 04:12:30;;;;;;;30.20;14.68;;;;;;;;;;5033073;28;20033;-80
2022/08/26 04:14:55;;;;;;;23.85;14.48;;;;;;;;;;5032916;28;20032;-77
2022/08/26 04:17:24;;;;;;;23.45;14.35;;;;;;;;;;5032802;28;20076;-78
2022/08/26 04:19:54;;;;;;;27.33;14.48;;;;;;;;;;5031770;28;20033;-80
2022/08/26 04:22:19;;;;;;;24.52;15.85;;;;;;;;;;5031148;28;20017;-79
2022/08/26 04:24:45;;;;;;;33.95;14.68;;;;;;;;;;5032783;28;20499;-79
2022/08/26 04:27:14;;;;;;;26.30;14.77;;;;;;;;;;5047603;28;20048;-76
2022/08/26 04:29:40;;;;;;;22.95;15.45;;;;;;;;;;5032660;28;20065;-79
2022/08/26 04:32:07;;;;;;;42.75;16.20;;;;;;;;;;5031397;28;20108;-79
2022/08/26 04:34:33;;;;;;;37.95;17.10;;;;;;;;;;5031574;28;20079;-78
2022/08/26 04:36:59;;;;;;;29.55;15.15;;;;;;;;;;5032063;28;20026;-78
2022/08/26 04:39:25;;;;;;;20.52;14.10;;;;;;;;;;5032289;28;20017;-79
2022/08/26 04:41:51;;;;;;;27.25;14.32;;;;;;;;;;5030667;28;20031;-79
2022/08/26 04:44:17;;;;;;;22.83;13.70;;;;;;;;;;5030874;28;20029;-78
2022/08/26 04:46:43;;;;;;;21.75;14.70;;;;;;;;;;5030197;28;20095;-79
2022/08/26 04:49:10;;;;;;;20.20;13.80;;;;;;;;;;5032256;28;20378;-79
2022/08/26 04:51:36;;;;;;;26.77;14.55;;;;;;;;;;5048183;28;20052;-79
2022/08/26 04:54:06;;;;;;;22.15;14.15;;;;;;;;;;5032011;28;20482;-81
2022/08/26 04:56:35;;;;;;;28.38;16.88;;;;;;;;;;5032462;28;20456;-79
2022/08/26 04:59:02;;;;;;;21.70;13.88;;;;;;;;;;5032182;28;20393;-79
2022/08/26 05:01:28;;;;;;;37.80;15.45;;;;;;;;;;5032344;28;20040;-80
2022/08/26 05:03:54;;;;;;;23.27;14.50;;;;;;;;;;5032380;28;20022;-79
2022/08/26 05:06:19;;;;;;;24.27;13.43;;;;;;;;;;5032423;28;20052;-79
2022/08/26 05:08:45;;;;;;;27.35;14.15;;;;;;;;;;5030655;28;20043;-79
2022/08/26 05:11:12;;;;;;;22.63;14.75;;;;;;;;;;5031836;28;20087;-80
2022/08/26 05:13:40;;;;;;;23.67;14.07;;;;;;;;;;5023701;28;20032;-78
2022/08/26 05:16:09;;;;;;;24.33;14.15;;;;;;;;;;5028259;28;20045;-79
2022/08/26 05:18:37;;;;;;;27.58;16.25;;;;;;;;;;5032628;28;20056;-78
2022/08/26 05:21:04;;;;;;;27.92;14.63;;;;;;;;;;5033526;28;20072;-78
2022/08/26 05:23:33;;;;;;;30.98;15.38;;;;;;;;;;5030483;28;20092;-78
2022/08/26 05:25:59;;;;;;;27.88;15.63;;;;;;;;;;5030690;28;20122;-77
2022/08/26 05:28:25;;;;;;;33.70;15.80;;;;;;;;;;5029782;28;20037;-77
2022/08/26 05:30:53;;;;;;;30.23;15.25;;;;;;;;;;5029550;28;20029;-77
2022/08/26 05:33:19;;;;;;;51.15;33.15;;;;;;;;;;5029731;28;20321;-77
2022/08/26 05:35:45;;;;;;;31.48;20.10;;;;;;;;;;5047285;28;20033;-77
2022/08/26 05:38:14;;;;;;;31.75;19.60;;;;;;;;;;5031490;28;20032;-77
2022/08/26 05:40:43;;;;;;;24.27;14.50;;;;;;;;;;5032455;28;20028;-76
2022/08/26 05:43:12;;;;;;;22.60;13.13;;;;;;;;;;5027570;28;20036;-76
2022/08/26 05:45:40;;;;;;;20.27;13.05;;;;;;;;;;5032306;28;20047;-75
2022/08/26 05:48:09;;;;;;;26.30;13.75;;;;;;;;;;5043288;28;20385;-80
2022/08/26 05:50:54;;;;;;;20.20;13.15;;;;;;;;;;5045987;28;20511;-80
2022/08/26 05:53:21;;;;;;;20.85;13.30;;;;;;;;;;5047010;28;20021;-80
2022/08/26 05:55:49;;;;;;;23.67;13.02;;;;;;;;;;5060834;28;20040;-79
2022/08/26 05:58:18;;;;;;;20.88;14.48;;;;;;;;;;5025130;28;20025;-80
2022/08/26 06:00:47;;;;;;;19.00;13.90;;;;;;;;;;5018369;28;20088;-79
2022/08/26 06:03:16;;;;;;;25.98;14.15;;;;;;;;;;5025084;28;20097;-80
2022/08/26 06:05:41;;;;;;;23.50;13.85;;;;;;;;;;5035676;28;20056;-81
2022/08/26 06:08:13;;;;;;;23.50;14.10;;;;;;;;;;5051300;28;20040;-79
2022/08/26 06:11:00;;;;;;;26.50;14.20;;;;;;;;;;5051040;28;20024;-78
2022/08/26 06:13:28;;;;;;;26.30;14.85;;;;;;;;;;5014490;28;20117;-79
2022/08/26 06:16:03;;;;;;;27.70;14.70;;;;;;;;;;5032602;28;20040;-80
2022/08/26 06:18:33;;;;;;;26.38;15.48;;;;;;;;;;5062601;28;20022;-79
2022/08/26 06:21:13;;;;;;;28.50;14.80;;;;;;;;;;5051043;28;20035;-79
2022/08/26 06:26:23;;;;;;;33.35;17.30;;;;;;;;;;5036329;28;20051;-80
2022/08/26 06:28:48;;;;;;;24.63;16.30;;;;;;;;;;5033697;28;20037;-79
2022/08/26 06:31:14;;;;;;;31.52;16.63;;;;;;;;;;5048378;28;20029;-78
2022/08/26 06:33:41;;;;;;;28.38;15.48;;;;;;;;;;5050791;28;20469;-79
2022/08/26 06:36:14;;;;;;;28.25;15.23;;;;;;;;;;5046377;28;20059;-79
2022/08/26 06:38:42;;;;;;;23.92;15.07;;;;;;;;;;5039316;28;20477;-79
2022/08/26 06:41:10;;;;;;;19.15;14.63;;;;;;;;;;5024514;28;20071;-79
2022/08/26 06:43:35;;;;;;;28.40;15.82;;;;;;;;;;5044116;28;20046;-78
2022/08/26 06:46:03;;;;;;;27.65;15.52;;;;;;;;;;5016298;28;20034;-77
2022/08/26 06:48:29;;;;;;;23.50;16.65;;;;;;;;;;5037314;28;20033;-79
2022/08/26 06:51:09;;;;;;;29.77;15.52;;;;;;;;;;5022468;28;20026;-79
2022/08/26 06:53:36;;;;;;;25.20;15.68;;;;;;;;;;5019337;28;20096;-79
2022/08/26 06:56:04;;;;;;;23.33;15.60;;;;;;;;;;5028599;28;20040;-80
2022/08/26 06:58:30;;;;;;;27.40;16.65;;;;;;;;;;5027356;28;20040;-79
2022/08/26 07:00:59;;;;;;;28.60;16.42;;;;;;;;;;5034541;28;20029;-79
2022/08/26 07:03:24;;;;;;;23.08;16.02;;;;;;;;;;5030221;28;20372;-81
2022/08/26 07:05:50;;;;;;;29.67;17.17;;;;;;;;;;5038350;28;20087;-78
2022/08/26 07:08:16;;;;;;;24.42;16.85;;;;;;;;;;5028032;28;20058;-80
2022/08/26 07:10:42;;;;;;;39.22;19.77;;;;;;;;;;5034424;28;20034;-79
2022/08/26 07:13:09;;;;;;;27.90;17.10;;;;;;;;;;5034402;28;20399;-79
2022/08/26 07:15:40;;;;;;;32.00;17.85;;;;;;;;;;5025003;28;20034;-79
2022/08/26 07:18:07;;;;;;;37.13;17.75;;;;;;;;;;5029048;28;20491;-80
2022/08/26 07:20:38;;;;;;;28.42;16.77;;;;;;;;;;5024213;28;20481;-79
2022/08/26 07:23:08;;;;;;;25.30;16.30;;;;;;;;;;5028736;28;20108;-78
2022/08/26 07:25:41;;;;;;;32.20;17.35;;;;;;;;;;5052143;28;20109;-79
2022/08/26 07:28:18;;;;;;;31.98;17.83;;;;;;;;;;5015063;28;20334;-80
2022/08/26 07:30:45;;;;;;;26.75;17.00;;;;;;;;;;5027560;28;20039;-80
2022/08/26 07:33:12;;;;;;;27.15;17.10;;;;;;;;;;5045031;28;20030;-80
2022/08/26 07:35:40;;;;;;;31.95;18.23;;;;;;;;;;5017506;28;20037;-80
2022/08/26 07:38:10;;;;;;;27.67;17.35;;;;;;;;;;5048262;28;20040;-78
2022/08/26 07:40:36;;;;;;;34.38;19.63;;;;;;;;;;5023816;28;20100;-78
2022/08/26 07:43:01;;;;;;;35.28;19.35;;;;;;;;;;5039368;28;20183;-78
2022/08/26 07:45:27;;;;;;;32.70;19.08;;;;;;;;;;5016384;28;20021;-78
2022/08/26 07:47:57;;;;;;;30.58;18.40;;;;;;;;;;5021608;28;20516;-78
2022/08/26 07:50:23;;;;;;;30.33;16.63;;;;;;;;;;5035702;28;20033;-80
2022/08/26 07:52:49;;;;;;;37.65;19.38;;;;;;;;;;5046507;28;20478;-80
2022/08/26 07:55:15;;;;;;;34.28;19.58;;;;;;;;;;5052599;28;20031;-78
2022/08/26 07:57:42;;;;;;;36.05;19.35;;;;;;;;;;5022500;28;20435;-79
2022/08/26 08:00:11;;;;;;;34.47;19.15;;;;;;;;;;5025035;28;20037;-79
2022/08/26 08:02:37;;;;;;;29.42;18.33;;;;;;;;;;5043734;28;20117;-79
2022/08/26 08:05:02;;;;;;;31.70;17.88;;;;;;;;;;5032966;28;20117;-80
2022/08/26 08:07:28;;;;;;;28.73;17.67;;;;;;;;;;5039873;28;20087;-79
2022/08/26 08:09:53;;;;;;;27.67;17.65;;;;;;;;;;5018780;28;20029;-78
2022/08/26 08:12:19;;;;;;;41.67;18.90;;;;;;;;;;5026166;28;20034;-78
2022/08/26 08:14:46;;;;;;;33.65;18.65;;;;;;;;;;5028756;28;20044;-78
2022/08/26 08:17:13;;;;;;;34.20;18.65;;;;;;;;;;5026013;28;20297;-79
2022/08/26 08:19:39;;;;;;;34.17;18.08;;;;;;;;;;5029538;28;20124;-78
2022/08/26 08:22:06;;;;;;;41.55;19.17;;;;;;;;;;5033270;28;20036;-79
2022/08/26 08:24:34;;;;;;;32.63;19.00;;;;;;;;;;5030781;28;20033;-79
2022/08/26 08:27:01;;;;;;;34.63;18.13;;;;;;;;;;5025451;28;20486;-79
2022/08/26 08:29:28;;;;;;;32.25;18.13;;;;;;;;;;5032742;28;20025;-79
2022/08/26 08:31:55;;;;;;;35.70;19.35;;;;;;;;;;5024534;28;20049;-79
2022/08/26 08:34:21;;;;;;;36.45;16.98;;;;;;;;;;5023239;28;20053;-79
2022/08/26 08:36:47;;;;;;;38.67;18.40;;;;;;;;;;5026433;28;20037;-81
2022/08/26 08:39:13;;;;;;;37.63;18.20;;;;;;;;;;5024460;28;20041;-78
2022/08/26 08:41:48;;;;;;;44.08;20.08;;;;;;;;;;5024893;28;20026;-79
2022/08/26 08:44:22;;;;;;;30.38;17.90;;;;;;;;;;5037061;28;20032;-78
2022/08/26 08:46:52;;;;;;;30.55;16.38;;;;;;;;;;5036077;28;20067;-80
2022/08/26 08:49:20;;;;;;;27.42;16.13;;;;;;;;;;5045122;28;20091;-79
2022/08/26 08:52:05;;;;;;;24.40;12.82;;;;;;;;;;5035368;28;20494;-79
2022/08/26 08:54:32;;;;;;;26.00;13.30;;;;;;;;;;5044538;28;20112;-79
2022/08/26 08:57:11;;;;;;;25.85;12.25;;;;;;;;;;5046621;28;20033;-79
2022/08/26 08:59:46;;;;;;;22.88;12.13;;;;;;;;;;5026627;28;20025;-82
2022/08/26 09:02:29;;;;;;;30.33;16.52;;;;;;;;;;5027232;28;20032;-80
2022/08/26 09:05:09;;;;;;;23.25;13.90;;;;;;;;;;5057352;28;20036;-77
2022/08/26 09:07:44;;;;;;;26.17;13.37;;;;;;;;;;5025049;28;20033;-79
2022/08/26 09:10:24;;;;;;;24.80;12.88;;;;;;;;;;5033219;28;20508;-79
2022/08/26 09:12:51;;;;;;;31.92;12.02;;;;;;;;;;5023472;28;20021;-80
2022/08/26 09:15:19;;;;;;;20.52;12.13;;;;;;;;;;5015590;28;20132;-79
2022/08/26 09:18:01;;;;;;;26.05;11.13;;;;;;;;;;5027090;28;20331;-79
2022/08/26 09:20:57;;;;;;;22.63;11.23;;;;;;;;;;5027408;28;20564;-78
2022/08/26 09:23:23;;;;;;;20.40;10.93;;;;;;;;;;5023027;28;20035;-78
2022/08/26 09:26:01;;;;;;;31.45;12.50;;;;;;;;;;5018429;28;20034;-85
2022/08/26 09:28:29;;;;;;;20.92;10.38;;;;;;;;;;5016711;28;20052;-83
2022/08/26 09:31:01;;;;;;;22.55;11.25;;;;;;;;;;5031427;28;20404;-80
2022/08/26 09:33:32;;;;;;;20.20;10.02;;;;;;;;;;5023243;28;20374;-79
2022/08/26 09:36:31;;;;;;;20.15;9.43;;;;;;;;;;5041501;28;20038;-79
2022/08/26 09:38:57;;;;;;;22.27;9.70;;;;;;;;;;5036657;28;20490;-80
2022/08/26 09:41:31;;;;;;;24.25;10.45;;;;;;;;;;5020165;28;20365;-80
2022/08/26 09:44:03;;;;;;;20.58;10.32;;;;;;;;;;5027237;28;20060;-79
2022/08/26 09:46:30;;;;;;;17.75;9.48;;;;;;;;;;5040020;28;20131;-79
2022/08/26 09:49:16;;;;;;;14.20;9.80;;;;;;;;;;5042390;28;20029;-78
2022/08/26 09:51:41;;;;;;;26.70;10.75;;;;;;;;;;5018205;28;20570;-78
2022/08/26 09:54:07;;;;;;;23.63;10.35;;;;;;;;;;5027235;28;20065;-80
2022/08/26 09:56:37;;;;;;;21.75;9.27;;;;;;;;;;5032754;28;20428;-80
2022/08/26 09:59:09;;;;;;;15.68;9.77;;;;;;;;;;5049865;28;20378;-80
2022/08/26 10:01:43;;;;;;;21.17;8.82;;;;;;;;;;5028536;28;20064;-80
2022/08/26 10:04:29;;;;;;;22.65;9.20;;;;;;;;;;5041540;28;20032;-80
2022/08/26 10:07:04;;;;;;;20.58;9.35;;;;;;;;;;5024563;28;20661;-80
2022/08/26 10:09:37;;;;;;;19.70;8.75;;;;;;;;;;5032287;28;20425;-80
2022/08/26 10:12:12;;;;;;;24.63;10.25;;;;;;;;;;5044033;28;20466;-79
2022/08/26 10:14:52;;;;;;;20.77;9.25;;;;;;;;;;5023529;28;20033;-80
2022/08/26 10:17:38;;;;;;;24.85;8.68;;;;;;;;;;5030140;28;20036;-81
2022/08/26 10:20:10;;;;;;;24.90;9.00;;;;;;;;;;5026794;28;20052;-80
2022/08/26 10:22:39;;;;;;;18.38;8.77;;;;;;;;;;5045557;28;20385;-79
2022/08/26 10:25:10;;;;;;;20.75;8.57;;;;;;;;;;5022468;28;20025;-81
2022/08/26 10:28:06;;;;;;;20.30;8.85;;;;;;;;;;5017695;28;20062;-81
2022/08/26 10:30:39;;;;;;;22.42;8.48;;;;;;;;;;5027276;28;20552;-80
2022/08/26 10:33:11;;;;;;;17.85;8.48;;;;;;;;;;5045744;28;20022;-79
2022/08/26 10:35:54;;;;;;;19.95;8.15;;;;;;;;;;5025569;28;20124;-81
2022/08/26 10:38:40;;;;;;;20.55;8.65;;;;;;;;;;5037416;28;20026;-79
2022/08/26 10:41:09;;;;;;;27.45;9.65;;;;;;;;;;5027569;28;20037;-80
2022/08/26 10:43:39;;;;;;;17.42;8.25;;;;;;;;;;5028811;28;20140;-79
2022/08/26 10:46:13;;;;;;;23.35;9.07;;;;;;;;;;5023007;28;20032;-80
2022/08/26 10:48:52;;;;;;;21.45;9.48;;;;;;;;;;5024331;28;20122;-80
2022/08/26 10:51:23;;;;;;;19.30;8.15;;;;;;;;;;5043865;28;20477;-78
2022/08/26 10:53:57;;;;;;;20.42;8.35;;;;;;;;;;5018893;28;20040;-79
2022/08/26 10:56:42;;;;;;;24.02;9.15;;;;;;;;;;5020093;28;20030;-79
2022/08/26 10:59:29;;;;;;;20.55;8.15;;;;;;;;;;5031744;28;20048;-79
2022/08/26 11:02:08;;;;;;;21.30;8.45;;;;;;;;;;5031748;28;20061;-78
2022/08/26 11:04:52;;;;;;;26.27;9.82;;;;;;;;;;5025164;28;20046;-80
2022/08/26 11:07:36;;;;;;;24.05;10.02;;;;;;;;;;5028171;28;20021;-78
2022/08/26 11:10:59;;;;;;;17.50;8.95;;;;;;;;;;5033187;28;20465;-77
2022/08/26 11:13:56;;;;;;;18.98;9.52;;;;;;;;;;5022765;28;20089;-79
2022/08/26 11:16:35;;;;;;;24.15;9.63;;;;;;;;;;5023422;28;20061;-79
2022/08/26 11:19:01;;;;;;;21.45;9.00;;;;;;;;;;5035998;28;20025;-79
2022/08/26 11:21:47;;;;;;;17.05;8.85;;;;;;;;;;5039637;28;20026;-78
2022/08/26 11:24:42;;;;;;;15.18;8.68;;;;;;;;;;5018619;28;20098;-80
2022/08/26 11:27:34;;;;;;;18.60;9.35;;;;;;;;;;5035728;28;20136;-79
2022/08/26 11:30:11;;;;;;;26.83;9.13;;;;;;;;;;5019217;28;20397;-78
2022/08/26 11:32:37;;;;;;;20.83;8.93;;;;;;;;;;5029471;28;20037;-80
2022/08/26 11:35:06;;;;;;;23.65;9.35;;;;;;;;;;5042958;28;20063;-79
2022/08/26 11:37:56;;;;;;;23.30;9.52;;;;;;;;;;5039629;28;20087;-79
2022/08/26 11:40:26;;;;;;;25.48;10.20;;;;;;;;;;5020520;28;20028;-79
2022/08/26 11:42:57;;;;;;;21.38;9.43;;;;;;;;;;5024741;28;20358;-79
2022/08/26 11:45:44;;;;;;;22.85;8.88;;;;;;;;;;5020561;28;20461;-79
2022/08/26 11:48:25;;;;;;;19.92;8.68;;;;;;;;;;5030357;28;20802;-78
2022/08/26 11:51:09;;;;;;;;;;;;;;;;;;5025692;28;20025;-78
2022/08/26 11:53:38;;;;;;;23.33;8.70;;;;;;;;;;5030269;28;19917;-78
2022/08/26 11:56:17;;;;;;;22.00;8.15;;;;;;;;;;5027970;28;20017;-78
2022/08/26 11:58:45;;;;;;;27.58;8.93;;;;;;;;;;5047237;28;20037;-80
2022/08/26 12:01:20;;;;;;;24.45;8.25;;;;;;;;;;5031393;28;20021;-78
2022/08/26 12:03:48;;;;;;;18.02;8.25;;;;;;;;;;5025417;28;20053;-79
2022/08/26 12:06:27;;;;;;;15.65;8.07;;;;;;;;;;5021354;28;20060;-79
2022/08/26 12:08:56;;;;;;;14.93;7.22;;;;;;;;;;5031005;28;20029;-79
2022/08/26 12:11:34;;;;;;;21.33;9.30;;;;;;;;;;5024241;28;20041;-79
2022/08/26 12:14:18;;;;;;;27.30;8.10;;;;;;;;;;5043648;28;20025;-80
2022/08/26 12:16:44;;;;;;;26.77;7.95;;;;;;;;;;5035206;28;20084;-80
2022/08/26 12:19:31;;;;;;;23.90;8.60;;;;;;;;;;5019026;28;20068;-80
2022/08/26 12:22:37;;;;;;;14.80;7.72;;;;;;;;;;5025201;28;20021;-80
2022/08/26 12:25:08;;;;;;;24.92;8.20;;;;;;;;;;5026148;28;20032;-80
2022/08/26 12:27:39;;;;;;;;;;;;;;;;;;5027406;28;20069;-80
2022/08/26 12:30:14;;;;;;;20.20;8.43;;;;;;;;;;5051154;28;19913;-78
2022/08/26 12:32:49;;;;;;;29.25;8.18;;;;;;;;;;5023746;28;20355;-80
2022/08/26 12:35:16;;;;;;;20.92;7.85;;;;;;;;;;5030839;28;20445;-80
2022/08/26 12:37:52;;;;;;;20.63;8.40;;;;;;;;;;5027116;28;20042;-79
2022/08/26 12:40:34;;;;;;;26.77;7.60;;;;;;;;;;5022643;28;20401;-79
2022/08/26 12:43:02;;;;;;;26.05;9.20;;;;;;;;;;5026951;28;20026;-79
2022/08/26 12:45:30;;;;;;;21.17;7.63;;;;;;;;;;5038190;28;20041;-79
2022/08/26 12:48:00;;;;;;;23.63;8.60;;;;;;;;;;5019334;28;20145;-79
2022/08/26 12:50:33;;;;;;;29.70;8.45;;;;;;;;;;5024456;28;20029;-78
2022/08/26 12:53:00;;;;;;;20.58;8.43;;;;;;;;;;5026412;28;20041;-78
2022/08/26 12:55:51;;;;;;;25.77;8.10;;;;;;;;;;5038821;28;20108;-79
2022/08/26 12:58:30;;;;;;;21.23;7.78;;;;;;;;;;5036205;28;20026;-80
2022/08/26 13:00:56;;;;;;;25.52;8.65;;;;;;;;;;5012022;28;20386;-79
2022/08/26 13:03:33;;;;;;;27.42;8.00;;;;;;;;;;5033143;28;20030;-79
2022/08/26 13:06:28;;;;;;;26.10;8.68;;;;;;;;;;5049533;28;20036;-80
2022/08/26 13:08:57;;;;;;;26.15;8.48;;;;;;;;;;5040920;28;20307;-80
2022/08/26 13:11:30;;;;;;;34.38;9.77;;;;;;;;;;5044523;28;20079;-80
2022/08/26 13:14:05;;;;;;;26.02;8.65;;;;;;;;;;5030070;28;20030;-80
2022/08/26 13:16:32;;;;;;;32.75;8.38;;;;;;;;;;5028012;28;20033;-79
2022/08/26 13:19:01;;;;;;;19.80;8.10;;;;;;;;;;5012952;28;20038;-80
2022/08/26 13:21:33;;;;;;;24.33;9.10;;;;;;;;;;5001943;28;20318;-79
2022/08/26 13:24:10;;;;;;;26.70;8.63;;;;;;;;;;5022700;28;20053;-80
2022/08/26 13:26:38;;;;;;;29.30;8.65;;;;;;;;;;5029305;28;20046;-77
2022/08/26 13:29:04;;;;;;;22.38;8.48;;;;;;;;;;5011633;28;20359;-79
2022/08/26 13:31:33;;;;;;;24.00;9.63;;;;;;;;;;5040146;28;20107;-80
2022/08/26 13:33:59;;;;;;;28.05;8.43;;;;;;;;;;5045778;28;20548;-80
2022/08/26 13:36:25;;;;;;;23.23;9.07;;;;;;;;;;5031139;28;20065;-79
2022/08/26 13:38:52;;;;;;;29.17;9.20;;;;;;;;;;5048045;28;20100;-80
2022/08/26 13:41:19;;;;;;;20.60;8.68;;;;;;;;;;5037666;28;20025;-79
2022/08/26 13:43:45;;;;;;;24.63;8.68;;;;;;;;;;5042989;28;20029;-80
2022/08/26 13:46:11;;;;;;;26.60;7.80;;;;;;;;;;5025931;28;20033;-80
2022/08/26 13:48:37;;;;;;;27.73;7.88;;;;;;;;;;5024094;28;20104;-79
2022/08/26 13:51:04;;;;;;;25.38;7.95;;;;;;;;;;5015014;28;20489;-80
2022/08/26 13:53:30;;;;;;;29.70;8.85;;;;;;;;;;5022272;28;20133;-78
2022/08/26 13:55:59;;;;;;;14.52;8.07;;;;;;;;;;5067203;28;20071;-79
2022/08/26 13:58:27;;;;;;;24.08;8.18;;;;;;;;;;5039181;28;20067;-80
2022/08/26 14:00:55;;;;;;;26.38;8.35;;;;;;;;;;5044564;28;20048;-80
2022/08/26 14:03:21;;;;;;;23.38;6.75;;;;;;;;;;5037363;28;20026;-80
2022/08/26 14:05:47;;;;;;;18.98;8.27;;;;;;;;;;5013605;28;20044;-79
2022/08/26 14:08:12;;;;;;;16.60;7.05;;;;;;;;;;5021722;28;20045;-79
2022/08/26 14:10:38;;;;;;;15.38;7.15;;;;;;;;;;5014167;28;20111;-79
2022/08/26 14:13:03;;;;;;;13.68;6.68;;;;;;;;;;5033047;28;20045;-78
2022/08/26 14:15:33;;;;;;;19.83;6.93;;;;;;;;;;5049177;28;20040;-78
2022/08/26 14:18:01;;;;;;;25.20;7.47;;;;;;;;;;5049450;28;20072;-79
2022/08/26 14:20:28;;;;;;;19.65;6.75;;;;;;;;;;5046073;28;20457;-78
2022/08/26 14:22:54;;;;;;;14.88;6.93;;;;;;;;;;5038644;28;20033;-79
2022/08/26 14:25:20;;;;;;;23.73;6.68;;;;;;;;;;5041930;28;20083;-80
2022/08/26 14:27:47;;;;;;;19.30;6.57;;;;;;;;;;5035805;28;20104;-79
2022/08/26 14:30:13;;;;;;;14.80;6.60;;;;;;;;;;5018716;28;20037;-79
2022/08/26 14:32:43;;;;;;;18.27;6.80;;;;;;;;;;5026689;28;20036;-79
2022/08/26 14:35:12;;;;;;;20.67;6.47;;;;;;;;;;5052528;28;20029;-79
2022/08/26 14:37:38;;;;;;;19.93;6.40;;;;;;;;;;5019107;28;20041;-77
2022/08/26 14:40:05;;;;;;;16.00;7.22;;;;;;;;;;5040302;28;20320;-80
2022/08/26 14:42:31;;;;;;;25.33;7.07;;;;;;;;;;5052482;28;20433;-79